sensor_id;sensor_type;location;lat;lon;timestamp;P1;durP1;ratioP1;P2;durP2;ratioP2
65373;SDS011;52070;53.760;9.678;2024-03-07T00:02:10;24.80;;;10.88;;
65373;SDS011;52070;53.760;9.678;2024-03-07T00:04:37;22.65;;;10.90;;
65373;SDS011;52070;53.760;9.678;2024-03-07T00:07:05;20.27;;;9.50;;
65373;SDS011;52070;53.760;9.678;2024-03-07T00:09:32;24.40;;;10.15;;
65373;SDS011;52070;53.760;9.678;2024-03-07T00:12:00;28.70;;;10.45;;
65373;SDS011;52070;53.760;9.678;2024-03-07T00:14:27;26.52;;;9.90;;
65373;SDS011;52070;53.760;9.678;2024-03-07T00:16:54;28.10;;;10.82;;
65373;SDS011;52070;53.760;9.678;2024-03-07T00:19:21;22.05;;;10.57;;
65373;SDS011;52070;53.760;9.678;2024-03-07T00:21:52;23.60;;;10.57;;
65373;SDS011;52070;53.760;9.678;2024-03-07T00:24:20;24.52;;;10.65;;
65373;SDS011;52070;53.760;9.678;2024-03-07T00:26:48;21.48;;;10.00;;
65373;SDS011;52070;53.760;9.678;2024-03-07T00:29:16;26.27;;;10.93;;
65373;SDS011;52070;53.760;9.678;2024-03-07T00:31:44;24.25;;;10.68;;
65373;SDS011;52070;53.760;9.678;2024-03-07T00:34:12;23.60;;;10.70;;
65373;SDS011;52070;53.760;9.678;2024-03-07T00:36:39;30.95;;;10.95;;
65373;SDS011;52070;53.760;9.678;2024-03-07T00:39:06;27.92;;;10.45;;
65373;SDS011;52070;53.760;9.678;2024-03-07T00:41:35;24.38;;;10.48;;
65373;SDS011;52070;53.760;9.678;2024-03-07T00:44:02;25.33;;;11.13;;
65373;SDS011;52070;53.760;9.678;2024-03-07T00:46:29;31.52;;;11.98;;
65373;SDS011;52070;53.760;9.678;2024-03-07T00:48:56;29.17;;;10.95;;
65373;SDS011;52070;53.760;9.678;2024-03-07T00:51:23;25.48;;;11.25;;
65373;SDS011;52070;53.760;9.678;2024-03-07T00:53:50;27.83;;;11.30;;
65373;SDS011;52070;53.760;9.678;2024-03-07T00:56:16;27.25;;;11.18;;
65373;SDS011;52070;53.760;9.678;2024-03-07T00:58:45;29.15;;;10.43;;
65373;SDS011;52070;53.760;9.678;2024-03-07T01:01:12;31.15;;;12.23;;
65373;SDS011;52070;53.760;9.678;2024-03-07T01:03:40;26.23;;;10.93;;
65373;SDS011;52070;53.760;9.678;2024-03-07T01:06:07;28.80;;;10.73;;
65373;SDS011;52070;53.760;9.678;2024-03-07T01:08:35;24.90;;;11.00;;
65373;SDS011;52070;53.760;9.678;2024-03-07T01:11:02;29.52;;;11.43;;
65373;SDS011;52070;53.760;9.678;2024-03-07T01:13:35;26.85;;;10.60;;
65373;SDS011;52070;53.760;9.678;2024-03-07T01:16:03;28.70;;;11.32;;
65373;SDS011;52070;53.760;9.678;2024-03-07T01:18:30;27.10;;;11.63;;
65373;SDS011;52070;53.760;9.678;2024-03-07T01:20:58;24.10;;;11.20;;
65373;SDS011;52070;53.760;9.678;2024-03-07T01:23:25;28.70;;;10.85;;
65373;SDS011;52070;53.760;9.678;2024-03-07T01:25:54;26.35;;;10.98;;
65373;SDS011;52070;53.760;9.678;2024-03-07T01:28:22;25.88;;;11.05;;
65373;SDS011;52070;53.760;9.678;2024-03-07T01:30:49;31.95;;;11.95;;
65373;SDS011;52070;53.760;9.678;2024-03-07T01:33:17;30.48;;;10.80;;
65373;SDS011;52070;53.760;9.678;2024-03-07T01:35:44;24.48;;;10.40;;
65373;SDS011;52070;53.760;9.678;2024-03-07T01:38:12;26.58;;;11.23;;
65373;SDS011;52070;53.760;9.678;2024-03-07T01:40:39;34.40;;;11.82;;
65373;SDS011;52070;53.760;9.678;2024-03-07T01:43:06;30.45;;;11.98;;
65373;SDS011;52070;53.760;9.678;2024-03-07T01:45:33;30.02;;;11.45;;
65373;SDS011;52070;53.760;9.678;2024-03-07T01:48:03;24.08;;;9.88;;
65373;SDS011;52070;53.760;9.678;2024-03-07T01:50:32;27.70;;;10.07;;
65373;SDS011;52070;53.760;9.678;2024-03-07T01:52:59;27.55;;;11.38;;
65373;SDS011;52070;53.760;9.678;2024-03-07T01:55:27;29.92;;;11.70;;
65373;SDS011;52070;53.760;9.678;2024-03-07T01:57:55;28.70;;;11.52;;
65373;SDS011;52070;53.760;9.678;2024-03-07T02:00:25;23.83;;;11.15;;
65373;SDS011;52070;53.760;9.678;2024-03-07T02:02:53;27.40;;;11.05;;
65373;SDS011;52070;53.760;9.678;2024-03-07T02:05:20;25.00;;;11.05;;
65373;SDS011;52070;53.760;9.678;2024-03-07T02:07:49;32.92;;;11.55;;
65373;SDS011;52070;53.760;9.678;2024-03-07T02:10:16;31.20;;;11.18;;
65373;SDS011;52070;53.760;9.678;2024-03-07T02:12:43;23.42;;;11.05;;
65373;SDS011;52070;53.760;9.678;2024-03-07T02:15:11;25.33;;;11.18;;
65373;SDS011;52070;53.760;9.678;2024-03-07T02:17:39;27.75;;;10.13;;
65373;SDS011;52070;53.760;9.678;2024-03-07T02:20:08;23.65;;;10.75;;
65373;SDS011;52070;53.760;9.678;2024-03-07T02:22:40;25.45;;;10.45;;
65373;SDS011;52070;53.760;9.678;2024-03-07T02:25:07;29.88;;;11.27;;
65373;SDS011;52070;53.760;9.678;2024-03-07T02:27:35;24.15;;;10.70;;
65373;SDS011;52070;53.760;9.678;2024-03-07T02:30:03;29.95;;;11.20;;
65373;SDS011;52070;53.760;9.678;2024-03-07T02:32:33;27.63;;;11.00;;
65373;SDS011;52070;53.760;9.678;2024-03-07T02:35:02;27.67;;;11.50;;
65373;SDS011;52070;53.760;9.678;2024-03-07T02:37:30;25.30;;;10.85;;
65373;SDS011;52070;53.760;9.678;2024-03-07T02:39:58;25.60;;;10.20;;
65373;SDS011;52070;53.760;9.678;2024-03-07T02:42:25;26.23;;;11.13;;
65373;SDS011;52070;53.760;9.678;2024-03-07T02:44:52;27.90;;;11.70;;
65373;SDS011;52070;53.760;9.678;2024-03-07T02:47:20;22.83;;;10.45;;
65373;SDS011;52070;53.760;9.678;2024-03-07T02:49:49;25.30;;;10.27;;
65373;SDS011;52070;53.760;9.678;2024-03-07T02:52:16;26.15;;;11.18;;
65373;SDS011;52070;53.760;9.678;2024-03-07T02:54:43;22.17;;;11.13;;
65373;SDS011;52070;53.760;9.678;2024-03-07T02:57:11;25.73;;;10.00;;
65373;SDS011;52070;53.760;9.678;2024-03-07T02:59:38;23.25;;;10.38;;
65373;SDS011;52070;53.760;9.678;2024-03-07T03:02:05;20.35;;;9.07;;
65373;SDS011;52070;53.760;9.678;2024-03-07T03:04:32;19.95;;;9.25;;
65373;SDS011;52070;53.760;9.678;2024-03-07T03:06:59;22.02;;;9.20;;
65373;SDS011;52070;53.760;9.678;2024-03-07T03:09:26;24.33;;;9.38;;
65373;SDS011;52070;53.760;9.678;2024-03-07T03:11:54;19.27;;;9.07;;
65373;SDS011;52070;53.760;9.678;2024-03-07T03:14:22;22.30;;;10.05;;
65373;SDS011;52070;53.760;9.678;2024-03-07T03:16:49;26.38;;;9.35;;
65373;SDS011;52070;53.760;9.678;2024-03-07T03:19:16;22.67;;;9.65;;
65373;SDS011;52070;53.760;9.678;2024-03-07T03:21:43;21.05;;;9.65;;
65373;SDS011;52070;53.760;9.678;2024-03-07T03:24:10;24.13;;;9.60;;
65373;SDS011;52070;53.760;9.678;2024-03-07T03:26:37;24.85;;;9.88;;
65373;SDS011;52070;53.760;9.678;2024-03-07T03:29:03;26.02;;;9.57;;
65373;SDS011;52070;53.760;9.678;2024-03-07T03:31:33;24.33;;;9.63;;
65373;SDS011;52070;53.760;9.678;2024-03-07T03:34:00;20.38;;;9.93;;
65373;SDS011;52070;53.760;9.678;2024-03-07T03:36:27;23.00;;;9.52;;
65373;SDS011;52070;53.760;9.678;2024-03-07T03:38:55;18.83;;;8.63;;
65373;SDS011;52070;53.760;9.678;2024-03-07T03:41:22;19.25;;;9.05;;
65373;SDS011;52070;53.760;9.678;2024-03-07T03:43:49;28.35;;;9.52;;
65373;SDS011;52070;53.760;9.678;2024-03-07T03:46:16;19.95;;;7.88;;
65373;SDS011;52070;53.760;9.678;2024-03-07T03:48:45;22.38;;;8.15;;
65373;SDS011;52070;53.760;9.678;2024-03-07T03:51:11;22.77;;;7.47;;
65373;SDS011;52070;53.760;9.678;2024-03-07T03:53:41;19.60;;;8.10;;
65373;SDS011;52070;53.760;9.678;2024-03-07T03:56:09;17.63;;;7.72;;
65373;SDS011;52070;53.760;9.678;2024-03-07T03:58:39;17.52;;;6.95;;
65373;SDS011;52070;53.760;9.678;2024-03-07T04:01:06;17.30;;;7.82;;
65373;SDS011;52070;53.760;9.678;2024-03-07T04:03:38;17.48;;;8.18;;
65373;SDS011;52070;53.760;9.678;2024-03-07T04:06:06;16.67;;;7.07;;
65373;SDS011;52070;53.760;9.678;2024-03-07T04:08:33;15.90;;;6.55;;
65373;SDS011;52070;53.760;9.678;2024-03-07T04:11:03;17.80;;;6.40;;
65373;SDS011;52070;53.760;9.678;2024-03-07T04:13:31;23.48;;;6.72;;
65373;SDS011;52070;53.760;9.678;2024-03-07T04:16:03;15.93;;;6.47;;
65373;SDS011;52070;53.760;9.678;2024-03-07T04:18:31;13.75;;;6.55;;
65373;SDS011;52070;53.760;9.678;2024-03-07T04:20:58;13.20;;;6.05;;
65373;SDS011;52070;53.760;9.678;2024-03-07T04:23:26;22.13;;;6.68;;
65373;SDS011;52070;53.760;9.678;2024-03-07T04:25:53;16.73;;;6.78;;
65373;SDS011;52070;53.760;9.678;2024-03-07T04:28:21;18.65;;;6.57;;
65373;SDS011;52070;53.760;9.678;2024-03-07T04:30:48;17.25;;;6.45;;
65373;SDS011;52070;53.760;9.678;2024-03-07T04:33:16;18.35;;;6.18;;
65373;SDS011;52070;53.760;9.678;2024-03-07T04:35:43;13.35;;;5.40;;
65373;SDS011;52070;53.760;9.678;2024-03-07T04:38:10;17.00;;;6.45;;
65373;SDS011;52070;53.760;9.678;2024-03-07T04:40:42;11.32;;;5.45;;
65373;SDS011;52070;53.760;9.678;2024-03-07T04:43:09;13.85;;;5.65;;
65373;SDS011;52070;53.760;9.678;2024-03-07T04:45:36;12.30;;;6.30;;
65373;SDS011;52070;53.760;9.678;2024-03-07T04:48:04;16.77;;;6.20;;
65373;SDS011;52070;53.760;9.678;2024-03-07T04:50:34;17.10;;;6.05;;
65373;SDS011;52070;53.760;9.678;2024-03-07T04:53:00;11.90;;;5.50;;
65373;SDS011;52070;53.760;9.678;2024-03-07T04:55:28;16.67;;;5.90;;
65373;SDS011;52070;53.760;9.678;2024-03-07T04:57:57;11.48;;;5.72;;
65373;SDS011;52070;53.760;9.678;2024-03-07T05:00:24;13.63;;;6.55;;
65373;SDS011;52070;53.760;9.678;2024-03-07T05:02:51;18.45;;;6.47;;
65373;SDS011;52070;53.760;9.678;2024-03-07T05:05:18;17.33;;;6.55;;
65373;SDS011;52070;53.760;9.678;2024-03-07T05:07:47;13.43;;;6.28;;
65373;SDS011;52070;53.760;9.678;2024-03-07T05:10:16;13.93;;;6.35;;
65373;SDS011;52070;53.760;9.678;2024-03-07T05:12:43;12.80;;;6.22;;
65373;SDS011;52070;53.760;9.678;2024-03-07T05:15:11;15.63;;;6.97;;
65373;SDS011;52070;53.760;9.678;2024-03-07T05:17:38;12.80;;;6.88;;
65373;SDS011;52070;53.760;9.678;2024-03-07T05:20:08;15.13;;;6.53;;
65373;SDS011;52070;53.760;9.678;2024-03-07T05:22:37;15.30;;;6.10;;
65373;SDS011;52070;53.760;9.678;2024-03-07T05:25:06;18.20;;;7.68;;
65373;SDS011;52070;53.760;9.678;2024-03-07T05:27:33;16.55;;;6.38;;
65373;SDS011;52070;53.760;9.678;2024-03-07T05:30:01;23.92;;;6.95;;
65373;SDS011;52070;53.760;9.678;2024-03-07T05:32:32;15.88;;;6.45;;
65373;SDS011;52070;53.760;9.678;2024-03-07T05:34:59;11.77;;;5.72;;
65373;SDS011;52070;53.760;9.678;2024-03-07T05:37:27;15.98;;;5.85;;
65373;SDS011;52070;53.760;9.678;2024-03-07T05:39:54;12.90;;;6.38;;
65373;SDS011;52070;53.760;9.678;2024-03-07T05:42:21;11.75;;;6.05;;
65373;SDS011;52070;53.760;9.678;2024-03-07T05:44:50;15.00;;;6.68;;
65373;SDS011;52070;53.760;9.678;2024-03-07T05:47:19;14.27;;;6.75;;
65373;SDS011;52070;53.760;9.678;2024-03-07T05:49:48;13.52;;;6.55;;
65373;SDS011;52070;53.760;9.678;2024-03-07T05:52:15;16.92;;;6.43;;
65373;SDS011;52070;53.760;9.678;2024-03-07T05:54:42;13.32;;;6.28;;
65373;SDS011;52070;53.760;9.678;2024-03-07T05:57:10;13.82;;;6.95;;
65373;SDS011;52070;53.760;9.678;2024-03-07T05:59:37;16.13;;;6.32;;
65373;SDS011;52070;53.760;9.678;2024-03-07T06:02:05;16.00;;;6.57;;
65373;SDS011;52070;53.760;9.678;2024-03-07T06:04:32;14.57;;;7.50;;
65373;SDS011;52070;53.760;9.678;2024-03-07T06:07:01;13.27;;;6.45;;
65373;SDS011;52070;53.760;9.678;2024-03-07T06:09:28;16.83;;;7.15;;
65373;SDS011;52070;53.760;9.678;2024-03-07T06:11:55;14.55;;;6.63;;
65373;SDS011;52070;53.760;9.678;2024-03-07T06:14:22;13.65;;;7.25;;
65373;SDS011;52070;53.760;9.678;2024-03-07T06:16:49;17.27;;;7.13;;
65373;SDS011;52070;53.760;9.678;2024-03-07T06:19:17;14.45;;;7.03;;
65373;SDS011;52070;53.760;9.678;2024-03-07T06:21:44;18.48;;;7.25;;
65373;SDS011;52070;53.760;9.678;2024-03-07T06:24:13;15.98;;;7.30;;
65373;SDS011;52070;53.760;9.678;2024-03-07T06:26:40;17.45;;;6.63;;
65373;SDS011;52070;53.760;9.678;2024-03-07T06:29:13;21.23;;;7.43;;
65373;SDS011;52070;53.760;9.678;2024-03-07T06:31:41;15.75;;;7.05;;
65373;SDS011;52070;53.760;9.678;2024-03-07T06:34:08;16.20;;;7.43;;
65373;SDS011;52070;53.760;9.678;2024-03-07T06:36:36;14.95;;;6.22;;
65373;SDS011;52070;53.760;9.678;2024-03-07T06:39:03;15.27;;;6.85;;
65373;SDS011;52070;53.760;9.678;2024-03-07T06:41:32;16.42;;;7.15;;
65373;SDS011;52070;53.760;9.678;2024-03-07T06:44:00;15.45;;;7.15;;
65373;SDS011;52070;53.760;9.678;2024-03-07T06:46:27;14.90;;;7.35;;
65373;SDS011;52070;53.760;9.678;2024-03-07T06:48:54;17.23;;;7.68;;
65373;SDS011;52070;53.760;9.678;2024-03-07T06:51:21;15.35;;;7.00;;
65373;SDS011;52070;53.760;9.678;2024-03-07T06:53:50;14.75;;;6.82;;
65373;SDS011;52070;53.760;9.678;2024-03-07T06:56:17;12.70;;;6.25;;
65373;SDS011;52070;53.760;9.678;2024-03-07T06:58:45;14.27;;;6.20;;
65373;SDS011;52070;53.760;9.678;2024-03-07T07:01:13;12.98;;;6.28;;
65373;SDS011;52070;53.760;9.678;2024-03-07T07:03:41;18.55;;;6.47;;
65373;SDS011;52070;53.760;9.678;2024-03-07T07:06:10;20.15;;;6.15;;
65373;SDS011;52070;53.760;9.678;2024-03-07T07:08:37;18.42;;;8.40;;
65373;SDS011;52070;53.760;9.678;2024-03-07T07:11:04;18.50;;;6.32;;
65373;SDS011;52070;53.760;9.678;2024-03-07T07:13:31;12.48;;;6.15;;
65373;SDS011;52070;53.760;9.678;2024-03-07T07:16:00;11.07;;;5.65;;
65373;SDS011;52070;53.760;9.678;2024-03-07T07:18:27;14.05;;;6.35;;
65373;SDS011;52070;53.760;9.678;2024-03-07T07:20:54;24.98;;;6.68;;
65373;SDS011;52070;53.760;9.678;2024-03-07T07:23:21;19.83;;;6.95;;
65373;SDS011;52070;53.760;9.678;2024-03-07T07:25:49;12.40;;;6.35;;
65373;SDS011;52070;53.760;9.678;2024-03-07T07:28:16;13.70;;;5.88;;
65373;SDS011;52070;53.760;9.678;2024-03-07T07:30:43;17.30;;;6.53;;
65373;SDS011;52070;53.760;9.678;2024-03-07T07:33:13;14.25;;;6.10;;
65373;SDS011;52070;53.760;9.678;2024-03-07T07:35:40;16.23;;;6.68;;
65373;SDS011;52070;53.760;9.678;2024-03-07T07:38:07;13.82;;;6.13;;
65373;SDS011;52070;53.760;9.678;2024-03-07T07:40:36;11.50;;;5.72;;
65373;SDS011;52070;53.760;9.678;2024-03-07T07:43:03;11.23;;;6.20;;
65373;SDS011;52070;53.760;9.678;2024-03-07T07:45:30;11.90;;;5.93;;
65373;SDS011;52070;53.760;9.678;2024-03-07T07:47:58;15.73;;;6.32;;
65373;SDS011;52070;53.760;9.678;2024-03-07T07:50:26;13.43;;;6.72;;
65373;SDS011;52070;53.760;9.678;2024-03-07T07:52:54;13.65;;;6.05;;
65373;SDS011;52070;53.760;9.678;2024-03-07T07:55:23;14.45;;;7.43;;
65373;SDS011;52070;53.760;9.678;2024-03-07T07:57:51;58.92;;;18.98;;
65373;SDS011;52070;53.760;9.678;2024-03-07T08:00:20;16.80;;;6.35;;
65373;SDS011;52070;53.760;9.678;2024-03-07T08:02:49;18.83;;;6.90;;
65373;SDS011;52070;53.760;9.678;2024-03-07T08:05:17;12.05;;;6.18;;
65373;SDS011;52070;53.760;9.678;2024-03-07T08:07:46;14.43;;;5.93;;
65373;SDS011;52070;53.760;9.678;2024-03-07T08:10:14;11.23;;;5.75;;
65373;SDS011;52070;53.760;9.678;2024-03-07T08:12:42;9.63;;;5.15;;
65373;SDS011;52070;53.760;9.678;2024-03-07T08:15:09;11.98;;;6.13;;
65373;SDS011;52070;53.760;9.678;2024-03-07T08:17:40;10.70;;;5.65;;
65373;SDS011;52070;53.760;9.678;2024-03-07T08:20:10;13.75;;;5.55;;
65373;SDS011;52070;53.760;9.678;2024-03-07T08:22:38;11.30;;;5.15;;
65373;SDS011;52070;53.760;9.678;2024-03-07T08:25:09;11.07;;;5.90;;
65373;SDS011;52070;53.760;9.678;2024-03-07T08:27:36;9.18;;;4.78;;
65373;SDS011;52070;53.760;9.678;2024-03-07T08:30:04;15.98;;;6.50;;
65373;SDS011;52070;53.760;9.678;2024-03-07T08:32:33;10.68;;;5.70;;
65373;SDS011;52070;53.760;9.678;2024-03-07T08:35:03;11.40;;;5.15;;
65373;SDS011;52070;53.760;9.678;2024-03-07T08:37:33;14.73;;;6.22;;
65373;SDS011;52070;53.760;9.678;2024-03-07T08:40:01;12.57;;;5.32;;
65373;SDS011;52070;53.760;9.678;2024-03-07T08:42:33;14.45;;;6.43;;
65373;SDS011;52070;53.760;9.678;2024-03-07T08:45:01;11.73;;;5.25;;
65373;SDS011;52070;53.760;9.678;2024-03-07T08:47:30;13.65;;;5.70;;
65373;SDS011;52070;53.760;9.678;2024-03-07T08:49:57;12.52;;;5.57;;
65373;SDS011;52070;53.760;9.678;2024-03-07T08:52:24;15.65;;;5.70;;
65373;SDS011;52070;53.760;9.678;2024-03-07T08:54:52;16.42;;;6.47;;
65373;SDS011;52070;53.760;9.678;2024-03-07T08:57:20;13.80;;;6.10;;
65373;SDS011;52070;53.760;9.678;2024-03-07T08:59:49;16.13;;;6.30;;
65373;SDS011;52070;53.760;9.678;2024-03-07T09:02:16;11.32;;;5.97;;
65373;SDS011;52070;53.760;9.678;2024-03-07T09:04:43;11.70;;;5.93;;
65373;SDS011;52070;53.760;9.678;2024-03-07T09:07:10;16.60;;;6.05;;
65373;SDS011;52070;53.760;9.678;2024-03-07T09:09:37;15.27;;;5.95;;
65373;SDS011;52070;53.760;9.678;2024-03-07T09:12:04;11.35;;;6.07;;
65373;SDS011;52070;53.760;9.678;2024-03-07T09:14:32;16.48;;;6.15;;
65373;SDS011;52070;53.760;9.678;2024-03-07T09:17:00;14.75;;;6.32;;
65373;SDS011;52070;53.760;9.678;2024-03-07T09:19:27;12.68;;;6.45;;
65373;SDS011;52070;53.760;9.678;2024-03-07T09:21:54;13.32;;;6.72;;
65373;SDS011;52070;53.760;9.678;2024-03-07T09:24:21;11.45;;;6.03;;
65373;SDS011;52070;53.760;9.678;2024-03-07T09:26:48;13.00;;;6.95;;
65373;SDS011;52070;53.760;9.678;2024-03-07T09:29:15;15.07;;;6.65;;
65373;SDS011;52070;53.760;9.678;2024-03-07T09:31:43;11.50;;;6.28;;
65373;SDS011;52070;53.760;9.678;2024-03-07T09:34:12;17.95;;;6.40;;
65373;SDS011;52070;53.760;9.678;2024-03-07T09:36:40;14.02;;;6.70;;
65373;SDS011;52070;53.760;9.678;2024-03-07T09:39:08;17.80;;;7.93;;
65373;SDS011;52070;53.760;9.678;2024-03-07T09:41:35;15.35;;;6.80;;
65373;SDS011;52070;53.760;9.678;2024-03-07T09:44:03;14.45;;;7.35;;
65373;SDS011;52070;53.760;9.678;2024-03-07T09:46:31;17.98;;;7.80;;
65373;SDS011;52070;53.760;9.678;2024-03-07T09:48:58;18.02;;;8.57;;
65373;SDS011;52070;53.760;9.678;2024-03-07T09:51:28;26.92;;;8.50;;
65373;SDS011;52070;53.760;9.678;2024-03-07T09:53:56;17.58;;;8.05;;
65373;SDS011;52070;53.760;9.678;2024-03-07T09:56:26;24.17;;;8.55;;
65373;SDS011;52070;53.760;9.678;2024-03-07T09:58:56;19.73;;;8.15;;
65373;SDS011;52070;53.760;9.678;2024-03-07T10:01:26;21.33;;;9.55;;
65373;SDS011;52070;53.760;9.678;2024-03-07T10:03:57;18.15;;;9.05;;
65373;SDS011;52070;53.760;9.678;2024-03-07T10:06:27;19.80;;;9.23;;
65373;SDS011;52070;53.760;9.678;2024-03-07T10:08:55;18.35;;;8.82;;
65373;SDS011;52070;53.760;9.678;2024-03-07T10:11:25;17.88;;;8.48;;
65373;SDS011;52070;53.760;9.678;2024-03-07T10:13:52;17.55;;;9.05;;
65373;SDS011;52070;53.760;9.678;2024-03-07T10:16:19;17.70;;;7.93;;
65373;SDS011;52070;53.760;9.678;2024-03-07T10:18:46;21.35;;;8.52;;
65373;SDS011;52070;53.760;9.678;2024-03-07T10:21:18;16.08;;;7.97;;
65373;SDS011;52070;53.760;9.678;2024-03-07T10:23:47;22.40;;;8.40;;
65373;SDS011;52070;53.760;9.678;2024-03-07T10:26:15;16.67;;;7.32;;
65373;SDS011;52070;53.760;9.678;2024-03-07T10:28:43;16.83;;;7.93;;
65373;SDS011;52070;53.760;9.678;2024-03-07T10:31:10;17.30;;;8.60;;
65373;SDS011;52070;53.760;9.678;2024-03-07T10:36:09;21.80;;;8.30;;
65373;SDS011;52070;53.760;9.678;2024-03-07T10:38:39;18.17;;;8.70;;
65373;SDS011;52070;53.760;9.678;2024-03-07T10:41:07;18.80;;;8.77;;
65373;SDS011;52070;53.760;9.678;2024-03-07T10:43:36;21.95;;;9.60;;
65373;SDS011;52070;53.760;9.678;2024-03-07T10:46:07;21.95;;;8.85;;
65373;SDS011;52070;53.760;9.678;2024-03-07T10:48:38;24.55;;;9.38;;
65373;SDS011;52070;53.760;9.678;2024-03-07T10:51:06;23.80;;;10.32;;
65373;SDS011;52070;53.760;9.678;2024-03-07T10:53:45;21.58;;;8.98;;
65373;SDS011;52070;53.760;9.678;2024-03-07T10:56:29;22.90;;;9.00;;
65373;SDS011;52070;53.760;9.678;2024-03-07T10:59:16;18.77;;;9.35;;
65373;SDS011;52070;53.760;9.678;2024-03-07T11:04:15;17.58;;;8.25;;
65373;SDS011;52070;53.760;9.678;2024-03-07T11:06:43;21.58;;;9.15;;
65373;SDS011;52070;53.760;9.678;2024-03-07T11:09:10;30.00;;;9.60;;
65373;SDS011;52070;53.760;9.678;2024-03-07T11:11:40;20.13;;;9.30;;
65373;SDS011;52070;53.760;9.678;2024-03-07T11:14:08;22.90;;;10.50;;
65373;SDS011;52070;53.760;9.678;2024-03-07T11:16:37;23.42;;;10.23;;
65373;SDS011;52070;53.760;9.678;2024-03-07T11:19:18;18.02;;;9.65;;
65373;SDS011;52070;53.760;9.678;2024-03-07T11:21:46;24.42;;;9.68;;
65373;SDS011;52070;53.760;9.678;2024-03-07T11:24:23;23.55;;;10.63;;
65373;SDS011;52070;53.760;9.678;2024-03-07T11:26:56;23.70;;;10.73;;
65373;SDS011;52070;53.760;9.678;2024-03-07T11:29:40;20.40;;;9.55;;
65373;SDS011;52070;53.760;9.678;2024-03-07T11:32:14;21.75;;;9.57;;
65373;SDS011;52070;53.760;9.678;2024-03-07T11:34:42;18.63;;;10.02;;
65373;SDS011;52070;53.760;9.678;2024-03-07T11:37:16;18.47;;;9.67;;
65373;SDS011;52070;53.760;9.678;2024-03-07T11:39:44;17.80;;;9.32;;
65373;SDS011;52070;53.760;9.678;2024-03-07T11:42:20;21.25;;;9.43;;
65373;SDS011;52070;53.760;9.678;2024-03-07T11:44:51;21.25;;;9.75;;
65373;SDS011;52070;53.760;9.678;2024-03-07T11:47:21;19.60;;;8.65;;
65373;SDS011;52070;53.760;9.678;2024-03-07T11:49:49;19.45;;;9.00;;
65373;SDS011;52070;53.760;9.678;2024-03-07T11:52:17;23.30;;;9.15;;
65373;SDS011;52070;53.760;9.678;2024-03-07T11:54:45;24.25;;;9.70;;
65373;SDS011;52070;53.760;9.678;2024-03-07T11:57:15;20.20;;;9.07;;
65373;SDS011;52070;53.760;9.678;2024-03-07T11:59:47;24.48;;;9.82;;
65373;SDS011;52070;53.760;9.678;2024-03-07T12:02:17;25.50;;;9.98;;
65373;SDS011;52070;53.760;9.678;2024-03-07T12:04:47;23.05;;;10.13;;
65373;SDS011;52070;53.760;9.678;2024-03-07T12:07:15;20.17;;;9.45;;
65373;SDS011;52070;53.760;9.678;2024-03-07T12:09:43;19.42;;;8.95;;
65373;SDS011;52070;53.760;9.678;2024-03-07T12:12:16;23.52;;;10.13;;
65373;SDS011;52070;53.760;9.678;2024-03-07T12:14:43;21.77;;;9.20;;
65373;SDS011;52070;53.760;9.678;2024-03-07T12:17:13;21.35;;;9.32;;
65373;SDS011;52070;53.760;9.678;2024-03-07T12:19:41;21.48;;;9.70;;
65373;SDS011;52070;53.760;9.678;2024-03-07T12:22:09;19.98;;;10.50;;
65373;SDS011;52070;53.760;9.678;2024-03-07T12:24:39;23.85;;;9.75;;
65373;SDS011;52070;53.760;9.678;2024-03-07T12:27:07;21.45;;;9.10;;
65373;SDS011;52070;53.760;9.678;2024-03-07T12:29:35;22.48;;;9.27;;
65373;SDS011;52070;53.760;9.678;2024-03-07T12:32:06;29.73;;;9.70;;
65373;SDS011;52070;53.760;9.678;2024-03-07T12:34:34;21.33;;;9.27;;
65373;SDS011;52070;53.760;9.678;2024-03-07T12:37:03;22.23;;;9.90;;
65373;SDS011;52070;53.760;9.678;2024-03-07T12:39:31;20.67;;;10.07;;
65373;SDS011;52070;53.760;9.678;2024-03-07T12:42:01;19.05;;;9.88;;
65373;SDS011;52070;53.760;9.678;2024-03-07T12:44:38;21.45;;;9.73;;
65373;SDS011;52070;53.760;9.678;2024-03-07T12:47:10;23.77;;;10.02;;
65373;SDS011;52070;53.760;9.678;2024-03-07T12:49:37;26.60;;;10.13;;
65373;SDS011;52070;53.760;9.678;2024-03-07T12:52:04;19.45;;;9.52;;
65373;SDS011;52070;53.760;9.678;2024-03-07T12:54:33;21.33;;;10.05;;
65373;SDS011;52070;53.760;9.678;2024-03-07T12:57:00;21.02;;;9.95;;
65373;SDS011;52070;53.760;9.678;2024-03-07T12:59:31;22.02;;;10.18;;
65373;SDS011;52070;53.760;9.678;2024-03-07T13:01:58;21.42;;;10.18;;
65373;SDS011;52070;53.760;9.678;2024-03-07T13:04:26;26.10;;;9.95;;
65373;SDS011;52070;53.760;9.678;2024-03-07T13:06:53;20.40;;;9.60;;
65373;SDS011;52070;53.760;9.678;2024-03-07T13:09:25;27.27;;;9.73;;
65373;SDS011;52070;53.760;9.678;2024-03-07T13:11:53;20.23;;;9.73;;
65373;SDS011;52070;53.760;9.678;2024-03-07T13:14:20;23.52;;;10.13;;
65373;SDS011;52070;53.760;9.678;2024-03-07T13:16:47;23.38;;;9.88;;
65373;SDS011;52070;53.760;9.678;2024-03-07T13:19:15;21.17;;;9.50;;
65373;SDS011;52070;53.760;9.678;2024-03-07T13:21:47;19.60;;;9.65;;
65373;SDS011;52070;53.760;9.678;2024-03-07T13:24:15;26.92;;;10.23;;
65373;SDS011;52070;53.760;9.678;2024-03-07T13:26:43;18.80;;;10.50;;
65373;SDS011;52070;53.760;9.678;2024-03-07T13:29:10;19.38;;;9.95;;
65373;SDS011;52070;53.760;9.678;2024-03-07T13:31:37;27.73;;;11.13;;
65373;SDS011;52070;53.760;9.678;2024-03-07T13:34:08;22.70;;;10.65;;
65373;SDS011;52070;53.760;9.678;2024-03-07T13:36:38;25.13;;;10.60;;
65373;SDS011;52070;53.760;9.678;2024-03-07T13:39:07;23.23;;;10.77;;
65373;SDS011;52070;53.760;9.678;2024-03-07T13:44:03;24.83;;;10.63;;
65373;SDS011;52070;53.760;9.678;2024-03-07T13:46:31;25.98;;;11.25;;
65373;SDS011;52070;53.760;9.678;2024-03-07T13:48:58;26.45;;;11.45;;
65373;SDS011;52070;53.760;9.678;2024-03-07T13:51:32;26.17;;;11.25;;
65373;SDS011;52070;53.760;9.678;2024-03-07T13:54:02;28.50;;;12.18;;
65373;SDS011;52070;53.760;9.678;2024-03-07T13:56:54;26.58;;;10.48;;
65373;SDS011;52070;53.760;9.678;2024-03-07T13:59:35;27.38;;;11.20;;
65373;SDS011;52070;53.760;9.678;2024-03-07T14:02:29;25.10;;;11.52;;
65373;SDS011;52070;53.760;9.678;2024-03-07T14:05:27;31.92;;;11.05;;
65373;SDS011;52070;53.760;9.678;2024-03-07T14:08:14;27.83;;;12.25;;
65373;SDS011;52070;53.760;9.678;2024-03-07T14:13:58;26.75;;;12.30;;
65373;SDS011;52070;53.760;9.678;2024-03-07T14:23:01;24.60;;;12.90;;
65373;SDS011;52070;53.760;9.678;2024-03-07T14:25:56;29.92;;;12.70;;
65373;SDS011;52070;53.760;9.678;2024-03-07T14:28:54;28.42;;;12.88;;
65373;SDS011;52070;53.760;9.678;2024-03-07T14:31:39;32.17;;;12.40;;
65373;SDS011;52070;53.760;9.678;2024-03-07T14:34:10;33.03;;;12.88;;
65373;SDS011;52070;53.760;9.678;2024-03-07T14:36:43;28.63;;;13.05;;
65373;SDS011;52070;53.760;9.678;2024-03-07T14:39:14;26.55;;;12.68;;
65373;SDS011;52070;53.760;9.678;2024-03-07T14:41:48;34.80;;;13.23;;
65373;SDS011;52070;53.760;9.678;2024-03-07T14:44:19;32.97;;;12.90;;
65373;SDS011;52070;53.760;9.678;2024-03-07T14:46:48;34.07;;;12.93;;
65373;SDS011;52070;53.760;9.678;2024-03-07T14:49:19;23.58;;;12.38;;
65373;SDS011;52070;53.760;9.678;2024-03-07T14:51:48;25.67;;;12.77;;
65373;SDS011;52070;53.760;9.678;2024-03-07T14:54:19;29.48;;;12.90;;
65373;SDS011;52070;53.760;9.678;2024-03-07T14:56:46;28.35;;;13.05;;
65373;SDS011;52070;53.760;9.678;2024-03-07T14:59:13;27.13;;;12.85;;